Time;durP1;ratioP1;P1;durP2;ratioP2;P2;SDS_P1;SDS_P2;PMS_P1;PMS_P2;Temp;Humidity;BMP_temperature;BMP_pressure;BME280_temperature;BME280_humidity;BME280_pressure;Samples;Min_cycle;Max_cycle;Signal;HPM_P1;HPM_P2
2022/05/04 00:00:11;;;;;;;;;51.25;40.25;;;;;;;;5038659;28;8811;-65
2022/05/04 00:02:38;;;;;;;;;54.25;42.75;;;;;;;;5019904;28;8774;-65
2022/05/04 00:05:05;;;;;;;;;49.50;40.25;;;;;;;;5038129;28;8977;-65
2022/05/04 00:07:32;;;;;;;;;47.75;39.75;;;;;;;;5020164;28;8868;-64
2022/05/04 00:09:58;;;;;;;;;49.25;39.00;;;;;;;;5038480;28;8737;-65
2022/05/04 00:12:25;;;;;;;;;47.75;38.75;;;;;;;;5038031;28;8765;-65
2022/05/04 00:14:52;;;;;;;;;49.75;41.50;;;;;;;;5020620;28;8768;-65
2022/05/04 00:17:19;;;;;;;;;44.25;37.75;;;;;;;;5037419;28;8863;-64
2022/05/04 00:19:46;;;;;;;;;44.00;36.75;;;;;;;;5038039;28;8780;-65
2022/05/04 00:22:17;;;;;;;;;51.25;41.50;;;;;;;;5038213;28;8737;-65
2022/05/04 00:24:43;;;;;;;;;52.00;41.25;;;;;;;;5037038;28;8799;-65
2022/05/04 00:27:10;;;;;;;;;49.75;39.25;;;;;;;;5019834;28;8761;-65
2022/05/04 00:29:37;;;;;;;;;52.75;39.50;;;;;;;;5037384;28;8793;-65
2022/05/04 00:32:04;;;;;;;;;42.00;36.25;;;;;;;;5037733;28;8811;-65
2022/05/04 00:34:31;;;;;;;;;47.75;37.25;;;;;;;;5037141;28;8813;-65
2022/05/04 00:37:01;;;;;;;;;41.00;35.00;;;;;;;;5038501;28;8774;-65
2022/05/04 00:39:28;;;;;;;;;48.75;38.00;;;;;;;;5037221;28;8781;-65
2022/05/04 00:41:55;;;;;;;;;44.75;36.50;;;;;;;;5020593;28;9152;-66
2022/05/04 00:44:21;;;;;;;;;43.75;35.00;;;;;;;;5037040;28;8789;-64
2022/05/04 00:46:48;;;;;;;;;46.00;35.75;;;;;;;;5036589;28;8769;-65
2022/05/04 00:49:15;;;;;;;;;46.00;34.50;;;;;;;;5038630;28;8742;-65
2022/05/04 00:51:42;;;;;;;;;51.25;39.00;;;;;;;;5036909;28;8781;-62
2022/05/04 00:54:08;;;;;;;;;45.75;37.50;;;;;;;;5019439;28;8774;-62
2022/05/04 00:56:35;;;;;;;;;46.25;37.25;;;;;;;;5037016;28;8878;-62
2022/05/04 00:59:02;;;;;;;;;51.75;38.50;;;;;;;;5037216;28;8791;-62
2022/05/04 01:01:29;;;;;;;;;46.25;37.75;;;;;;;;5019963;28;8784;-62
2022/05/04 01:03:56;;;;;;;;;46.50;36.00;;;;;;;;5020423;28;8891;-62
2022/05/04 01:06:23;;;;;;;;;40.25;29.00;;;;;;;;5009251;28;8785;-61
2022/05/04 01:08:50;;;;;;;;;49.25;41.50;;;;;;;;5036722;28;8847;-62
2022/05/04 01:11:17;;;;;;;;;45.50;37.50;;;;;;;;5035638;28;8815;-60
2022/05/04 01:13:44;;;;;;;;;48.00;38.50;;;;;;;;5027034;28;8693;-65
2022/05/04 01:16:11;;;;;;;;;50.00;37.25;;;;;;;;5036207;28;8765;-65
2022/05/04 01:18:38;;;;;;;;;42.75;34.75;;;;;;;;5036588;28;8791;-64
2022/05/04 01:21:04;;;;;;;;;44.75;37.50;;;;;;;;5036872;28;8761;-65
2022/05/04 01:23:31;;;;;;;;;47.25;37.00;;;;;;;;5018776;28;8930;-65
2022/05/04 01:25:58;;;;;;;;;35.50;32.75;;;;;;;;5036724;28;8776;-65
2022/05/04 01:28:25;;;;;;;;;48.00;34.50;;;;;;;;5036857;28;8750;-65
2022/05/04 01:30:51;;;;;;;;;44.75;36.25;;;;;;;;5036627;28;8765;-64
2022/05/04 01:33:18;;;;;;;;;38.00;31.75;;;;;;;;5036043;28;8749;-63
2022/05/04 01:35:45;;;;;;;;;47.25;38.50;;;;;;;;5008757;28;8772;-65
2022/05/04 01:38:12;;;;;;;;;38.75;33.00;;;;;;;;5020493;28;9031;-65
2022/05/04 01:40:38;;;;;;;;;44.00;37.25;;;;;;;;5024436;28;8749;-65
2022/05/04 01:43:05;;;;;;;;;42.75;34.75;;;;;;;;5032789;28;8769;-65
2022/05/04 01:45:32;;;;;;;;;39.50;33.75;;;;;;;;5016886;28;8735;-64
2022/05/04 01:47:59;;;;;;;;;48.50;38.25;;;;;;;;5015244;28;8747;-65
2022/05/04 01:50:25;;;;;;;;;42.25;35.50;;;;;;;;5015463;28;8826;-65
2022/05/04 01:52:52;;;;;;;;;41.00;33.50;;;;;;;;5015164;28;8775;-65
2022/05/04 01:55:19;;;;;;;;;46.00;38.25;;;;;;;;4999797;28;8750;-64
2022/05/04 01:57:46;;;;;;;;;32.50;30.25;;;;;;;;5001153;28;9386;-65
2022/05/04 02:00:13;;;;;;;;;35.75;30.25;;;;;;;;4999646;28;9406;-65
2022/05/04 02:02:40;;;;;;;;;33.25;30.50;;;;;;;;4983708;28;8740;-65
2022/05/04 02:05:06;;;;;;;;;35.00;30.00;;;;;;;;5000986;28;8745;-65
2022/05/04 02:07:37;;;;;;;;;34.50;30.25;;;;;;;;5000715;28;8749;-65
2022/05/04 02:10:06;;;;;;;;;40.50;31.75;;;;;;;;5020234;28;8724;-65
2022/05/04 02:12:36;;;;;;;;;35.00;31.00;;;;;;;;5019759;28;8735;-65
2022/05/04 02:15:03;;;;;;;;;38.50;30.25;;;;;;;;5020160;28;8866;-65
2022/05/04 02:17:30;;;;;;;;;30.75;28.00;;;;;;;;5018704;28;8723;-65
2022/05/04 02:19:57;;;;;;;;;38.00;31.75;;;;;;;;5019876;28;9022;-65
2022/05/04 02:22:23;;;;;;;;;40.25;31.25;;;;;;;;5020678;28;8715;-65
2022/05/04 02:24:50;;;;;;;;;38.00;30.00;;;;;;;;5039445;28;9121;-66
2022/05/04 02:27:17;;;;;;;;;35.25;31.00;;;;;;;;5024023;28;8771;-64
2022/05/04 02:29:44;;;;;;;;;46.25;35.25;;;;;;;;5020325;28;9459;-65
2022/05/04 02:32:11;;;;;;;;;37.50;32.50;;;;;;;;5019796;28;8775;-65
2022/05/04 02:40:08;;;;;;;;;33.50;30.75;;;;;;;;5005432;28;8715;-65
2022/05/04 02:42:36;;;;;;;;;33.25;31.75;;;;;;;;5001560;28;8808;-65
2022/05/04 02:45:04;;;;;;;;;42.00;34.50;;;;;;;;5014504;28;8705;-65
2022/05/04 02:47:31;;;;;;;;;46.75;35.75;;;;;;;;4982079;28;8754;-65
2022/05/04 02:49:57;;;;;;;;;40.25;33.75;;;;;;;;4982755;28;8713;-65
2022/05/04 02:52:24;;;;;;;;;39.00;32.50;;;;;;;;4999630;28;8733;-59
2022/05/04 02:54:51;;;;;;;;;38.00;33.75;;;;;;;;5017454;28;8803;-65
2022/05/04 02:57:18;;;;;;;;;40.25;34.25;;;;;;;;5019114;28;9079;-64
2022/05/04 02:59:44;;;;;;;;;43.50;35.75;;;;;;;;5019202;28;8759;-65
2022/05/04 03:02:29;;;;;;;;;34.25;30.75;;;;;;;;5018690;28;8984;-64
2022/05/04 03:05:00;;;;;;;;;38.50;33.00;;;;;;;;5019244;28;8731;-65
2022/05/04 03:07:26;;;;;;;;;41.25;32.00;;;;;;;;5000911;28;8830;-64
2022/05/04 03:09:54;;;;;;;;;35.25;29.50;;;;;;;;5019381;28;8767;-65
2022/05/04 03:12:24;;;;;;;;;44.25;34.50;;;;;;;;5033599;28;8791;-65
2022/05/04 03:14:50;;;;;;;;;49.50;38.00;;;;;;;;5019027;28;8803;-65
2022/05/04 03:17:17;;;;;;;;;57.25;39.75;;;;;;;;5018766;28;8794;-64
2022/05/04 03:19:44;;;;;;;;;65.25;41.75;;;;;;;;5018977;28;8740;-65
2022/05/04 03:22:11;;;;;;;;;44.75;34.25;;;;;;;;5019623;28;8755;-65
2022/05/04 03:24:40;;;;;;;;;44.50;35.25;;;;;;;;5002501;28;8800;-64
2022/05/04 03:27:07;;;;;;;;;34.50;31.25;;;;;;;;4998019;28;8788;-64
2022/05/04 03:29:34;;;;;;;;;38.75;33.75;;;;;;;;4998099;28;8765;-65
2022/05/04 03:32:03;;;;;;;;;32.50;29.75;;;;;;;;5003577;28;8763;-65
2022/05/04 03:34:30;;;;;;;;;35.75;31.25;;;;;;;;4997711;28;8837;-65
2022/05/04 03:36:58;;;;;;;;;40.00;34.25;;;;;;;;4999553;28;8767;-65
2022/05/04 03:39:26;;;;;;;;;43.50;33.50;;;;;;;;5012368;28;8820;-65
2022/05/04 03:41:53;;;;;;;;;38.25;32.50;;;;;;;;5037192;28;8793;-65
2022/05/04 03:44:20;;;;;;;;;32.75;28.50;;;;;;;;5038093;28;8769;-65
2022/05/04 03:46:50;;;;;;;;;37.50;31.25;;;;;;;;5037803;28;8758;-65
2022/05/04 03:49:17;;;;;;;;;35.75;30.50;;;;;;;;5038728;28;9406;-65
2022/05/04 03:51:44;;;;;;;;;30.75;26.75;;;;;;;;5038048;28;8753;-65
2022/05/04 03:54:11;;;;;;;;;31.50;29.75;;;;;;;;5037780;28;8777;-65
2022/05/04 03:56:38;;;;;;;;;39.50;29.75;;;;;;;;5037787;28;8787;-65
2022/05/04 03:59:05;;;;;;;;;28.25;26.00;;;;;;;;5026898;28;8803;-65
2022/05/04 04:01:32;;;;;;;;;39.00;32.50;;;;;;;;5011254;28;8743;-65
2022/05/04 04:03:59;;;;;;;;;38.25;32.75;;;;;;;;5018471;28;8734;-65
2022/05/04 04:06:26;;;;;;;;;41.00;35.75;;;;;;;;5017806;28;8765;-65
2022/05/04 04:08:53;;;;;;;;;41.50;36.25;;;;;;;;5023172;28;8772;-65
2022/05/04 04:11:19;;;;;;;;;40.75;35.00;;;;;;;;4998076;28;8784;-64
2022/05/04 04:13:46;;;;;;;;;37.75;34.75;;;;;;;;4981078;28;9375;-65
2022/05/04 04:16:13;;;;;;;;;35.75;33.00;;;;;;;;4981725;28;8805;-65
2022/05/04 04:18:43;;;;;;;;;45.75;37.00;;;;;;;;4980339;28;8738;-65
2022/05/04 04:23:55;;;;;;;;;43.25;35.25;;;;;;;;5007565;28;8794;-65
2022/05/04 04:26:22;;;;;;;;;61.60;46.80;;;;;;;;5016623;28;8751;-65
2022/05/04 04:28:49;;;;;;;;;41.50;34.50;;;;;;;;5017725;28;8773;-65
2022/05/04 04:31:16;;;;;;;;;39.00;33.25;;;;;;;;5017704;28;8779;-65
2022/05/04 04:33:42;;;;;;;;;35.75;33.25;;;;;;;;5016318;28;9479;-65
2022/05/04 04:36:09;;;;;;;;;34.75;30.75;;;;;;;;5017427;28;8775;-65
2022/05/04 04:38:36;;;;;;;;;35.75;32.00;;;;;;;;5025563;28;8859;-65
2022/05/04 04:41:03;;;;;;;;;26.75;24.25;;;;;;;;4998068;28;9206;-65
2022/05/04 04:43:30;;;;;;;;;48.00;34.50;;;;;;;;4980375;28;8780;-65
2022/05/04 04:45:56;;;;;;;;;36.00;30.00;;;;;;;;4998453;28;8741;-65
2022/05/04 04:48:23;;;;;;;;;36.75;31.00;;;;;;;;4997701;28;8741;-65
2022/05/04 04:50:50;;;;;;;;;42.50;33.25;;;;;;;;4998333;28;9492;-65
2022/05/04 04:53:19;;;;;;;;;27.50;24.50;;;;;;;;5002313;28;8802;-65
2022/05/04 04:55:46;;;;;;;;;45.00;37.67;;;;;;;;5032073;28;8782;-65
2022/05/04 04:58:13;;;;;;;;;33.25;30.25;;;;;;;;5033114;28;8756;-65
2022/05/04 05:00:40;;;;;;;;;38.50;32.75;;;;;;;;5018971;28;8741;-65
2022/05/04 05:03:07;;;;;;;;;40.00;33.75;;;;;;;;5023212;28;8801;-65
2022/05/04 05:05:34;;;;;;;;;39.25;33.50;;;;;;;;5016802;28;8755;-65
2022/05/04 05:08:01;;;;;;;;;39.75;33.00;;;;;;;;5014353;28;8739;-65
2022/05/04 05:10:27;;;;;;;;;36.50;31.75;;;;;;;;4979981;28;8767;-65
2022/05/04 05:12:54;;;;;;;;;43.00;35.25;;;;;;;;4998041;28;8737;-65
2022/05/04 05:18:06;;;;;;;;;34.25;32.00;;;;;;;;4997564;28;8761;-65
2022/05/04 05:20:33;;;;;;;;;38.50;31.50;;;;;;;;4997690;28;8817;-65
2022/05/04 05:23:00;;;;;;;;;38.00;33.50;;;;;;;;4998673;28;8757;-65
2022/05/04 05:25:28;;;;;;;;;38.75;32.00;;;;;;;;5015426;28;8797;-64
2022/05/04 05:27:55;;;;;;;;;29.25;28.00;;;;;;;;5033002;28;8739;-65
2022/05/04 05:30:22;;;;;;;;;38.75;30.25;;;;;;;;5020218;28;8747;-65
2022/05/04 05:32:49;;;;;;;;;32.75;29.50;;;;;;;;5023691;28;8774;-65
2022/05/04 05:35:16;;;;;;;;;36.00;29.50;;;;;;;;5023587;28;8861;-65
2022/05/04 05:37:42;;;;;;;;;37.00;33.00;;;;;;;;5023334;28;8743;-65
2022/05/04 05:40:09;;;;;;;;;37.25;32.25;;;;;;;;5002983;28;8748;-65
2022/05/04 05:42:36;;;;;;;;;39.75;31.00;;;;;;;;5003555;28;8773;-65
2022/05/04 05:45:03;;;;;;;;;32.50;29.00;;;;;;;;5003891;28;8871;-65
2022/05/04 05:47:29;;;;;;;;;38.25;32.75;;;;;;;;5003794;28;8896;-65
2022/05/04 05:49:57;;;;;;;;;34.50;27.25;;;;;;;;5002957;28;8789;-65
2022/05/04 05:52:24;;;;;;;;;33.50;30.00;;;;;;;;5003175;28;8734;-65
2022/05/04 05:54:51;;;;;;;;;33.67;30.33;;;;;;;;5021172;28;8901;-65
2022/05/04 05:57:22;;;;;;;;;30.25;28.50;;;;;;;;5023093;28;9337;-63
2022/05/04 05:59:49;;;;;;;;;29.75;27.75;;;;;;;;5023207;28;8775;-65
2022/05/04 06:02:16;;;;;;;;;34.00;30.00;;;;;;;;5038881;28;8775;-66
2022/05/04 06:04:43;;;;;;;;;28.75;23.75;;;;;;;;5043146;28;8745;-65
2022/05/04 06:07:09;;;;;;;;;27.50;27.50;;;;;;;;5043187;28;8852;-65
2022/05/04 06:09:36;;;;;;;;;35.50;32.00;;;;;;;;5042336;28;8813;-65
2022/05/04 06:12:03;;;;;;;;;36.75;31.00;;;;;;;;5042989;28;8774;-65
2022/05/04 06:14:30;;;;;;;;;35.75;30.00;;;;;;;;5042447;28;8782;-65
2022/05/04 06:16:56;;;;;;;;;31.00;28.75;;;;;;;;5042606;28;8785;-65
2022/05/04 06:19:23;;;;;;;;;41.25;33.00;;;;;;;;5025015;28;8781;-65
2022/05/04 06:21:50;;;;;;;;;38.25;32.00;;;;;;;;5025118;28;10656;-65
2022/05/04 06:24:17;;;;;;;;;34.50;31.00;;;;;;;;5042622;28;8935;-64
2022/05/04 06:26:44;;;;;;;;;34.25;31.00;;;;;;;;5042982;28;8749;-65
2022/05/04 06:29:11;;;;;;;;;38.25;32.50;;;;;;;;5042816;28;8783;-65
2022/05/04 06:34:24;;;;;;;;;31.50;29.75;;;;;;;;5043062;28;8737;-64
2022/05/04 06:36:51;;;;;;;;;35.50;30.50;;;;;;;;5039999;28;8752;-65
2022/05/04 06:39:18;;;;;;;;;38.00;31.25;;;;;;;;5014076;28;8816;-64
2022/05/04 06:41:44;;;;;;;;;34.00;29.00;;;;;;;;5001044;28;8766;-65
2022/05/04 06:44:11;;;;;;;;;33.25;27.25;;;;;;;;5000552;28;9002;-65
2022/05/04 06:46:41;;;;;;;;;35.50;29.50;;;;;;;;4999760;28;8762;-65
2022/05/04 06:49:10;;;;;;;;;30.00;27.25;;;;;;;;5000550;28;8741;-65
2022/05/04 06:51:36;;;;;;;;;32.50;30.50;;;;;;;;4998720;28;8787;-65
2022/05/04 06:54:03;;;;;;;;;36.00;31.00;;;;;;;;5025764;28;8783;-65
2022/05/04 06:56:30;;;;;;;;;38.50;32.25;;;;;;;;5019288;28;8845;-65
2022/05/04 06:58:57;;;;;;;;;35.25;32.25;;;;;;;;5019790;28;8877;-65
2022/05/04 07:01:23;;;;;;;;;34.00;30.75;;;;;;;;5019844;28;8809;-65
2022/05/04 07:03:50;;;;;;;;;35.00;29.25;;;;;;;;5031126;28;8741;-65
2022/05/04 07:06:17;;;;;;;;;30.50;30.50;;;;;;;;5022403;28;8759;-65
2022/05/04 07:08:46;;;;;;;;;38.75;30.00;;;;;;;;5011021;28;8757;-65
2022/05/04 07:11:13;;;;;;;;;33.00;31.25;;;;;;;;5000010;28;8777;-65
2022/05/04 07:13:41;;;;;;;;;29.50;27.50;;;;;;;;4998159;28;8760;-65
2022/05/04 07:16:08;;;;;;;;;31.50;29.75;;;;;;;;5000317;28;8776;-65
2022/05/04 07:18:35;;;;;;;;;35.00;31.00;;;;;;;;4999540;28;9466;-65
2022/05/04 07:21:02;;;;;;;;;34.50;30.25;;;;;;;;5000164;28;8749;-66
2022/05/04 07:23:29;;;;;;;;;28.25;27.00;;;;;;;;5005603;28;8759;-65
2022/05/04 07:25:55;;;;;;;;;40.25;33.25;;;;;;;;5019358;28;8829;-66
2022/05/04 07:28:22;;;;;;;;;38.25;33.25;;;;;;;;5019568;28;8797;-65
2022/05/04 07:30:49;;;;;;;;;35.25;30.50;;;;;;;;5034455;28;8735;-65
2022/05/04 07:33:16;;;;;;;;;36.25;31.25;;;;;;;;5018942;28;8779;-65
2022/05/04 07:35:42;;;;;;;;;38.50;33.25;;;;;;;;5018250;28;8744;-65
2022/05/04 07:38:09;;;;;;;;;35.00;31.25;;;;;;;;5014871;28;9469;-65
2022/05/04 07:43:20;;;;;;;;;33.25;31.00;;;;;;;;4984351;28;8757;-65
2022/05/04 07:45:47;;;;;;;;;35.50;30.25;;;;;;;;4998932;28;8745;-65
2022/05/04 07:48:14;;;;;;;;;32.25;30.25;;;;;;;;4998682;28;8773;-65
2022/05/04 07:50:41;;;;;;;;;31.75;29.00;;;;;;;;4998361;28;8773;-65
2022/05/04 07:53:08;;;;;;;;;32.50;27.25;;;;;;;;5001760;28;8744;-65
2022/05/04 07:55:36;;;;;;;;;26.50;23.75;;;;;;;;5018024;28;8759;-65
2022/05/04 07:58:03;;;;;;;;;36.75;30.25;;;;;;;;5018876;28;8723;-65
2022/05/04 08:06:00;;;;;;;;;31.00;29.50;;;;;;;;5017959;28;8747;-65
2022/05/04 08:08:27;;;;;;;;;30.75;28.75;;;;;;;;5012271;28;8770;-65
2022/05/04 08:10:53;;;;;;;;;26.50;25.50;;;;;;;;4998637;28;8918;-65
2022/05/04 08:13:20;;;;;;;;;28.75;28.50;;;;;;;;4998729;28;8784;-65
2022/05/04 08:15:47;;;;;;;;;32.00;28.25;;;;;;;;4998414;28;9445;-65
2022/05/04 08:18:14;;;;;;;;;31.25;26.75;;;;;;;;4998286;28;8828;-65
2022/05/04 08:20:41;;;;;;;;;30.25;27.75;;;;;;;;4980867;28;8750;-65
2022/05/04 08:23:09;;;;;;;;;31.25;26.75;;;;;;;;5001187;28;8756;-65
2022/05/04 08:25:36;;;;;;;;;32.75;27.75;;;;;;;;5017617;28;8724;-65
2022/05/04 08:28:03;;;;;;;;;27.75;27.75;;;;;;;;5018281;28;8774;-66
2022/05/04 08:30:33;;;;;;;;;34.00;31.25;;;;;;;;5017673;28;9969;-65
2022/05/04 08:33:00;;;;;;;;;33.00;30.25;;;;;;;;5029036;28;8717;-65
2022/05/04 08:35:27;;;;;;;;;23.50;21.00;;;;;;;;4997812;28;8874;-65
2022/05/04 08:37:56;;;;;;;;;32.00;28.00;;;;;;;;4996473;28;8814;-66
2022/05/04 08:40:23;;;;;;;;;32.25;29.00;;;;;;;;4979036;28;8760;-65
2022/05/04 08:42:50;;;;;;;;;33.75;29.00;;;;;;;;4978586;28;8787;-65
2022/05/04 08:45:17;;;;;;;;;32.00;30.75;;;;;;;;4978314;28;8784;-64
2022/05/04 08:47:45;;;;;;;;;32.75;28.00;;;;;;;;4978563;28;8890;-65
2022/05/04 08:50:15;;;;;;;;;29.00;27.00;;;;;;;;5006379;28;8783;-64
2022/05/04 08:52:51;;;;;;;;;27.50;27.50;;;;;;;;4978470;28;8784;-65
2022/05/04 08:55:18;;;;;;;;;29.25;27.00;;;;;;;;4999678;28;8832;-64
2022/05/04 08:57:45;;;;;;;;;32.00;27.00;;;;;;;;4998322;28;8782;-66
2022/05/04 09:00:11;;;;;;;;;38.00;30.25;;;;;;;;4997617;28;8766;-65
2022/05/04 09:02:39;;;;;;;;;38.00;31.00;;;;;;;;4997351;28;8805;-64
2022/05/04 09:05:19;;;;;;;;;31.00;28.67;;;;;;;;4997499;28;8785;-65
2022/05/04 09:07:47;;;;;;;;;30.50;26.00;;;;;;;;4997575;28;8808;-65
2022/05/04 09:10:18;;;;;;;;;26.75;22.50;;;;;;;;4997972;28;8765;-65
2022/05/04 09:12:45;;;;;;;;;29.25;28.50;;;;;;;;4997415;28;8770;-65
2022/05/04 09:15:32;;;;;;;;;28.75;26.75;;;;;;;;5028542;28;8821;-65
2022/05/04 09:18:02;;;;;;;;;33.25;30.25;;;;;;;;5004788;28;8781;-65
2022/05/04 09:20:45;;;;;;;;;27.75;25.00;;;;;;;;4997490;28;8801;-65
2022/05/04 09:23:12;;;;;;;;;31.75;28.00;;;;;;;;4993620;28;8780;-65
2022/05/04 09:25:39;;;;;;;;;29.50;27.50;;;;;;;;4977755;28;8764;-65
2022/05/04 09:28:10;;;;;;;;;25.75;21.00;;;;;;;;4993225;28;8740;-65
2022/05/04 09:30:38;;;;;;;;;33.50;29.75;;;;;;;;4977857;28;8788;-65
2022/05/04 09:33:12;;;;;;;;;30.25;28.75;;;;;;;;4995447;28;8792;-65
2022/05/04 09:35:42;;;;;;;;;39.00;29.75;;;;;;;;4997180;28;8840;-65
2022/05/04 09:46:38;;;;;;;;;33.50;29.75;;;;;;;;5016509;28;8715;-63
2022/05/04 09:49:18;;;;;;;;;34.00;29.25;;;;;;;;5037296;28;8749;-65
2022/05/04 09:51:54;;;;;;;;;24.25;24.00;;;;;;;;5016795;28;8786;-65
2022/05/04 09:54:30;;;;;;;;;27.00;24.75;;;;;;;;5008882;28;8792;-64
2022/05/04 09:56:56;;;;;;;;;27.75;26.50;;;;;;;;5016696;28;8786;-65
2022/05/04 09:59:25;;;;;;;;;32.75;28.50;;;;;;;;5027308;28;8759;-65
2022/05/04 10:01:52;;;;;;;;;27.75;25.75;;;;;;;;5016553;28;9383;-65
2022/05/04 10:04:20;;;;;;;;;27.25;25.25;;;;;;;;5032029;28;8902;-64
2022/05/04 10:06:50;;;;;;;;;32.50;30.25;;;;;;;;5016539;28;8751;-65
2022/05/04 10:09:16;;;;;;;;;26.75;23.75;;;;;;;;5016525;28;8923;-65
2022/05/04 10:11:45;;;;;;;;;33.00;28.75;;;;;;;;5016566;28;8767;-65
2022/05/04 10:14:15;;;;;;;;;31.75;29.25;;;;;;;;5031637;28;8820;-65
2022/05/04 10:16:47;;;;;;;;;35.25;30.75;;;;;;;;5017498;28;8759;-65
2022/05/04 10:19:28;;;;;;;;;31.25;28.00;;;;;;;;5020882;28;8759;-65
2022/05/04 10:21:57;;;;;;;;;28.75;27.00;;;;;;;;5022341;28;8777;-65
2022/05/04 10:24:23;;;;;;;;;24.75;17.00;;;;;;;;5039469;28;8797;-64
2022/05/04 10:26:50;;;;;;;;;29.25;27.25;;;;;;;;5039770;28;8774;-65
2022/05/04 10:32:32;;;;;;;;;28.75;24.50;;;;;;;;5039434;28;8789;-65
2022/05/04 10:35:17;;;;;;;;;32.50;29.00;;;;;;;;5039824;28;8831;-66
2022/05/04 10:37:59;;;;;;;;;28.75;26.75;;;;;;;;5039279;28;8844;-65
2022/05/04 10:40:27;;;;;;;;;29.75;26.25;;;;;;;;5019898;28;8790;-65
2022/05/04 10:43:13;;;;;;;;;33.00;29.25;;;;;;;;5020460;28;8740;-66
2022/05/04 10:45:41;;;;;;;;;31.50;29.50;;;;;;;;5020023;28;8795;-66
2022/05/04 10:48:14;;;;;;;;;34.75;28.50;;;;;;;;5019636;28;8895;-66
2022/05/04 10:50:57;;;;;;;;;25.00;23.50;;;;;;;;5019274;28;8792;-66
2022/05/04 10:53:27;;;;;;;;;26.75;26.25;;;;;;;;5024303;28;8770;-65
2022/05/04 10:56:05;;;;;;;;;29.75;25.50;;;;;;;;5021767;28;8795;-66
2022/05/04 10:58:34;;;;;;;;;33.00;29.25;;;;;;;;5038973;28;9457;-65
2022/05/04 11:01:04;;;;;;;;;33.00;29.50;;;;;;;;5039641;28;8749;-65
2022/05/04 11:03:37;;;;;;;;;28.50;26.00;;;;;;;;5021130;28;9449;-65
2022/05/04 11:06:10;;;;;;;;;30.75;27.50;;;;;;;;5039414;28;8769;-66
2022/05/04 11:08:37;;;;;;;;;27.50;27.25;;;;;;;;5038962;28;8785;-65
2022/05/04 11:11:08;;;;;;;;;31.50;29.25;;;;;;;;5039305;28;8785;-66
2022/05/04 11:13:34;;;;;;;;;35.00;28.50;;;;;;;;5037279;28;8781;-66
2022/05/04 11:16:01;;;;;;;;;30.75;29.00;;;;;;;;5037979;28;8797;-65
2022/05/04 11:18:28;;;;;;;;;30.00;27.25;;;;;;;;5039043;28;8777;-65
2022/05/04 11:20:55;;;;;;;;;31.00;28.75;;;;;;;;5021071;28;8821;-65
2022/05/04 11:23:25;;;;;;;;;40.00;32.25;;;;;;;;5038517;28;8769;-65
2022/05/04 11:25:52;;;;;;;;;42.25;33.25;;;;;;;;5038825;28;8746;-65
2022/05/04 11:28:20;;;;;;;;;35.75;33.25;;;;;;;;5039126;28;8745;-65
2022/05/04 11:30:47;;;;;;;;;41.50;34.25;;;;;;;;5038936;28;8754;-65
2022/05/04 11:33:15;;;;;;;;;44.25;35.50;;;;;;;;5038753;28;8851;-65
2022/05/04 11:35:43;;;;;;;;;45.25;34.75;;;;;;;;5020961;28;8881;-65
2022/05/04 11:38:19;;;;;;;;;45.00;36.75;;;;;;;;5038520;28;8773;-65
2022/05/04 11:40:46;;;;;;;;;44.75;36.25;;;;;;;;5027339;28;8851;-65
2022/05/04 11:43:42;;;;;;;;;43.25;36.00;;;;;;;;5021275;28;8741;-65
2022/05/04 11:46:10;;;;;;;;;45.25;37.75;;;;;;;;5022404;28;8767;-65
2022/05/04 11:48:42;;;;;;;;;44.75;36.50;;;;;;;;5037873;28;8805;-65
2022/05/04 11:51:09;;;;;;;;;45.25;35.75;;;;;;;;5037605;28;8808;-65
2022/05/04 11:53:36;;;;;;;;;36.00;32.75;;;;;;;;5036422;28;8813;-65
2022/05/04 11:56:06;;;;;;;;;42.25;35.25;;;;;;;;5038221;28;8816;-65
2022/05/04 11:58:33;;;;;;;;;43.50;35.75;;;;;;;;5037434;28;8758;-66
2022/05/04 12:01:00;;;;;;;;;40.75;34.25;;;;;;;;5038518;28;8745;-66
2022/05/04 12:03:27;;;;;;;;;42.50;35.00;;;;;;;;5037922;28;8781;-65
2022/05/04 12:05:54;;;;;;;;;39.25;33.00;;;;;;;;5038098;28;8843;-65
2022/05/04 12:08:22;;;;;;;;;42.50;35.50;;;;;;;;5020015;28;8896;-65
2022/05/04 12:10:49;;;;;;;;;38.75;34.25;;;;;;;;5037985;28;8772;-66
2022/05/04 12:13:16;;;;;;;;;44.75;36.50;;;;;;;;5038732;28;8801;-65
2022/05/04 12:15:43;;;;;;;;;42.25;34.50;;;;;;;;5037604;28;8774;-65
2022/05/04 12:18:11;;;;;;;;;48.50;37.50;;;;;;;;5037666;28;9406;-65
2022/05/04 12:20:38;;;;;;;;;45.00;36.50;;;;;;;;5037512;28;8920;-65
2022/05/04 12:23:05;;;;;;;;;49.00;37.50;;;;;;;;5037366;28;8773;-65
2022/05/04 12:25:32;;;;;;;;;47.75;39.25;;;;;;;;5037198;28;9402;-65
2022/05/04 12:27:59;;;;;;;;;46.00;37.50;;;;;;;;5020638;28;8852;-65
2022/05/04 12:33:12;;;;;;;;;47.50;40.25;;;;;;;;5037531;28;8829;-66
2022/05/04 12:35:42;;;;;;;;;53.75;43.00;;;;;;;;5026546;28;8825;-65
2022/05/04 12:38:09;;;;;;;;;47.75;39.75;;;;;;;;5038207;28;8792;-66
2022/05/04 12:40:36;;;;;;;;;46.00;37.50;;;;;;;;5037280;28;8796;-65
2022/05/04 12:43:03;;;;;;;;;50.50;42.00;;;;;;;;5038053;28;8749;-65
2022/05/04 12:45:30;;;;;;;;;49.25;40.75;;;;;;;;5037665;28;8765;-65
2022/05/04 12:47:57;;;;;;;;;53.00;43.00;;;;;;;;5038210;28;8779;-66
2022/05/04 12:50:24;;;;;;;;;52.75;44.00;;;;;;;;5037859;28;8800;-65
2022/05/04 12:52:51;;;;;;;;;53.00;42.00;;;;;;;;5037577;28;8777;-65
2022/05/04 12:55:18;;;;;;;;;50.50;42.00;;;;;;;;5038359;28;8781;-64
2022/05/04 12:57:45;;;;;;;;;57.00;44.25;;;;;;;;5020949;28;8742;-65
2022/05/04 13:00:12;;;;;;;;;53.25;43.25;;;;;;;;5038053;28;8741;-65
2022/05/04 13:02:42;;;;;;;;;57.50;46.00;;;;;;;;5038248;28;8835;-65
2022/05/04 13:05:09;;;;;;;;;56.25;44.75;;;;;;;;5037770;28;8779;-66
2022/05/04 13:07:37;;;;;;;;;55.50;43.25;;;;;;;;5002966;28;8778;-65
2022/05/04 13:10:04;;;;;;;;;50.50;42.50;;;;;;;;5020091;28;8745;-65
2022/05/04 13:12:31;;;;;;;;;54.00;41.25;;;;;;;;5037186;28;8748;-65
2022/05/04 13:14:57;;;;;;;;;54.50;44.75;;;;;;;;5037150;28;8797;-65
2022/05/04 13:17:24;;;;;;;;;58.25;46.50;;;;;;;;5036939;28;8769;-65
2022/05/04 13:19:51;;;;;;;;;59.75;47.50;;;;;;;;5037174;28;9428;-65
2022/05/04 13:22:17;;;;;;;;;60.25;48.50;;;;;;;;5036058;28;9454;-65
2022/05/04 13:24:44;;;;;;;;;56.00;45.00;;;;;;;;5036441;28;8757;-65
2022/05/04 13:27:11;;;;;;;;;60.50;49.25;;;;;;;;5037118;28;8858;-65
2022/05/04 13:29:38;;;;;;;;;62.50;47.50;;;;;;;;5036741;28;8880;-65
2022/05/04 13:32:05;;;;;;;;;61.50;48.00;;;;;;;;5036656;28;8781;-65
2022/05/04 13:34:32;;;;;;;;;67.40;53.00;;;;;;;;5018762;28;9370;-65
2022/05/04 13:36:58;;;;;;;;;63.00;49.80;;;;;;;;5037233;28;8762;-65
2022/05/04 13:39:26;;;;;;;;;68.40;52.20;;;;;;;;5036019;28;8729;-65
2022/05/04 13:41:53;;;;;;;;;64.20;50.80;;;;;;;;5036705;28;8864;-66
2022/05/04 13:44:19;;;;;;;;;71.00;53.60;;;;;;;;5018754;28;9461;-65
2022/05/04 13:46:46;;;;;;;;;67.80;53.20;;;;;;;;5036619;28;8801;-65
2022/05/04 13:49:15;;;;;;;;;66.00;51.40;;;;;;;;5036828;28;8762;-65
2022/05/04 13:54:28;;;;;;;;;62.75;49.50;;;;;;;;5040122;28;8726;-65
2022/05/04 13:56:55;;;;;;;;;64.25;47.00;;;;;;;;5041176;28;8741;-65
2022/05/04 13:59:22;;;;;;;;;67.00;52.60;;;;;;;;5022894;28;8769;-64
2022/05/04 14:01:49;;;;;;;;;67.00;52.25;;;;;;;;5040891;28;9410;-65
2022/05/04 14:04:15;;;;;;;;;68.20;53.00;;;;;;;;5041390;28;8785;-65
2022/05/04 14:06:43;;;;;;;;;77.20;62.60;;;;;;;;5040732;28;8797;-65
2022/05/04 14:09:10;;;;;;;;;76.80;63.00;;;;;;;;5022784;28;8774;-65
2022/05/04 14:11:36;;;;;;;;;76.80;59.60;;;;;;;;5040394;28;8805;-65
2022/05/04 14:16:48;;;;;;;;;70.40;54.40;;;;;;;;5041227;28;8784;-65
2022/05/04 14:19:15;;;;;;;;;68.00;53.25;;;;;;;;5041354;28;8757;-66
2022/05/04 14:21:42;;;;;;;;;64.80;52.60;;;;;;;;5021007;28;8762;-65
2022/05/04 14:24:08;;;;;;;;;68.80;51.80;;;;;;;;5025020;28;8769;-65
2022/05/04 14:26:36;;;;;;;;;70.40;54.80;;;;;;;;5001334;28;8786;-65
2022/05/04 14:29:02;;;;;;;;;72.00;58.40;;;;;;;;5000188;28;8803;-65
2022/05/04 14:31:29;;;;;;;;;74.00;59.20;;;;;;;;5000709;28;8752;-65
2022/05/04 14:33:56;;;;;;;;;73.40;58.60;;;;;;;;5001407;28;8777;-65
2022/05/04 14:36:23;;;;;;;;;73.40;59.40;;;;;;;;4998664;28;8883;-65
2022/05/04 14:38:49;;;;;;;;;48.20;36.80;;;;;;;;5008958;28;8763;-65
2022/05/04 14:41:16;;;;;;;;;69.50;54.00;;;;;;;;5019854;28;8818;-66
2022/05/04 14:43:43;;;;;;;;;61.60;48.20;;;;;;;;5019663;28;8752;-66
2022/05/04 14:46:09;;;;;;;;;61.00;48.60;;;;;;;;5020404;28;8731;-65
2022/05/04 14:48:36;;;;;;;;;64.50;50.25;;;;;;;;5018262;28;9937;-65
2022/05/04 14:51:03;;;;;;;;;65.40;50.00;;;;;;;;5019647;28;8750;-65
2022/05/04 14:53:29;;;;;;;;;62.25;48.00;;;;;;;;5028801;28;8875;-65
2022/05/04 14:55:56;;;;;;;;;68.40;51.40;;;;;;;;5000084;28;8785;-65
2022/05/04 14:58:26;;;;;;;;;62.40;49.00;;;;;;;;5000298;28;9434;-66
2022/05/04 15:00:53;;;;;;;;;63.25;50.00;;;;;;;;4982929;28;8742;-65
2022/05/04 15:06:08;;;;;;;;;66.00;51.00;;;;;;;;4999952;28;8737;-65
2022/05/04 15:08:38;;;;;;;;;61.00;48.50;;;;;;;;5006718;28;9928;-66
2022/05/04 15:11:05;;;;;;;;;50.25;39.25;;;;;;;;5019659;28;8785;-66
2022/05/04 15:13:31;;;;;;;;;58.25;47.50;;;;;;;;5019434;28;8779;-65
2022/05/04 15:15:59;;;;;;;;;61.50;47.25;;;;;;;;5018794;28;8803;-66
2022/05/04 15:18:25;;;;;;;;;71.25;51.50;;;;;;;;5033870;28;8791;-65